createdAt,value
2019-03-20T00:00:19.637Z,1026.11
2019-03-20T00:01:19.450Z,1026.06
2019-03-20T00:02:19.423Z,1026.08
2019-03-20T00:03:19.427Z,1026.08
2019-03-20T00:04:19.398Z,1026.07
2019-03-20T00:05:19.385Z,1026.09
2019-03-20T00:06:19.556Z,1026.07
2019-03-20T00:07:19.405Z,1026.04
2019-03-20T00:08:19.366Z,1026.05
2019-03-20T00:09:19.343Z,1026.04
2019-03-20T00:10:20.793Z,1026.11
2019-03-20T00:11:19.492Z,1026.07
2019-03-20T00:12:19.326Z,1026.10
2019-03-20T00:13:19.435Z,1026.15
2019-03-20T00:14:19.326Z,1026.15
2019-03-20T00:15:19.277Z,1026.10
2019-03-20T00:16:19.387Z,1026.16
2019-03-20T00:17:19.455Z,1026.19
2019-03-20T00:18:19.584Z,1026.22
2019-03-20T00:19:19.244Z,1026.20
2019-03-20T00:20:19.225Z,1026.20
2019-03-20T00:21:21.979Z,1026.15
2019-03-20T00:22:19.201Z,1026.18
2019-03-20T00:23:19.346Z,1026.24
2019-03-20T00:24:19.182Z,1026.22
2019-03-20T00:25:19.167Z,1026.24
2019-03-20T00:26:19.192Z,1026.29
2019-03-20T00:27:19.154Z,1026.27
2019-03-20T00:28:19.141Z,1026.26
2019-03-20T00:29:19.423Z,1026.26
2019-03-20T00:30:19.419Z,1026.26
2019-03-20T00:31:19.825Z,1026.25
2019-03-20T00:32:19.165Z,1026.26
2019-03-20T00:33:19.441Z,1026.24
2019-03-20T00:34:19.156Z,1026.31
2019-03-20T00:35:20.134Z,1026.30
2019-03-20T00:36:19.091Z,1026.27
2019-03-20T00:37:19.036Z,1026.28
2019-03-20T00:38:19.050Z,1026.26
2019-03-20T00:39:19.046Z,1026.25
2019-03-20T00:40:19.009Z,1026.26
2019-03-20T00:41:19.654Z,1026.28
2019-03-20T00:42:18.981Z,1026.27
2019-03-20T00:43:18.971Z,1026.28
2019-03-20T00:44:18.971Z,1026.29
2019-03-20T00:45:18.949Z,1026.29
2019-03-20T00:46:19.071Z,1026.30
2019-03-20T00:47:19.070Z,1026.29
2019-03-20T00:48:19.061Z,1026.25
2019-03-20T00:49:18.927Z,1026.33
2019-03-20T00:50:18.916Z,1026.32
2019-03-20T00:51:18.882Z,1026.31
2019-03-20T00:52:18.887Z,1026.30
2019-03-20T00:53:19.058Z,1026.29
2019-03-20T00:54:18.887Z,1026.25
2019-03-20T00:55:18.849Z,1026.27
2019-03-20T00:56:18.857Z,1026.29
2019-03-20T00:57:18.821Z,1026.24
2019-03-20T00:58:18.995Z,1026.25
2019-03-20T00:59:18.801Z,1026.21
2019-03-20T01:00:18.841Z,1026.25
2019-03-20T01:01:18.807Z,1026.28
2019-03-20T01:02:18.777Z,1026.27
2019-03-20T01:03:18.877Z,1026.31
2019-03-20T01:04:19.100Z,1026.32
2019-03-20T01:05:18.927Z,1026.33
2019-03-20T01:06:18.732Z,1026.30
2019-03-20T01:07:18.941Z,1026.31
2019-03-20T01:08:18.704Z,1026.31
2019-03-20T01:09:19.309Z,1026.30
2019-03-20T01:10:18.683Z,1026.30
2019-03-20T01:11:18.672Z,1026.32
2019-03-20T01:12:18.709Z,1026.33
2019-03-20T01:13:18.667Z,1026.35
2019-03-20T01:14:18.667Z,1026.35
2019-03-20T01:15:42.004Z,1026.33
2019-03-20T01:16:18.678Z,1026.31
2019-03-20T01:17:18.684Z,1026.28
2019-03-20T01:18:22.316Z,1026.31
2019-03-20T01:19:18.730Z,1026.35
2019-03-20T01:20:18.687Z,1026.32
2019-03-20T01:21:22.203Z,1026.37
2019-03-20T01:22:18.887Z,1026.34
2019-03-20T01:23:19.149Z,1026.36
2019-03-20T01:24:18.532Z,1026.32
2019-03-20T01:25:18.540Z,1026.29
2019-03-20T01:26:19.202Z,1026.29
2019-03-20T01:27:19.071Z,1026.34
2019-03-20T01:28:18.486Z,1026.29
2019-03-20T01:29:18.470Z,1026.34
2019-03-20T01:30:18.468Z,1026.30
2019-03-20T01:31:18.456Z,1026.32
2019-03-20T01:32:18.456Z,1026.27
2019-03-20T01:33:18.694Z,1026.28
2019-03-20T01:34:18.482Z,1026.28
2019-03-20T01:35:23.856Z,1026.31
2019-03-20T01:36:19.409Z,1026.29
2019-03-20T01:37:18.413Z,1026.29
2019-03-20T01:38:18.492Z,1026.30
2019-03-20T01:39:18.942Z,1026.28
2019-03-20T01:40:18.359Z,1026.28
2019-03-20T01:41:18.382Z,1026.29
2019-03-20T01:42:19.729Z,1026.29
2019-03-20T01:43:18.426Z,1026.29
2019-03-20T01:44:18.472Z,1026.28
2019-03-20T01:45:18.313Z,1026.34
2019-03-20T01:46:18.485Z,1026.31
2019-03-20T01:47:18.279Z,1026.31
2019-03-20T01:48:18.287Z,1026.31
2019-03-20T01:49:18.262Z,1026.35
2019-03-20T01:50:18.246Z,1026.35
2019-03-20T01:51:18.238Z,1026.32
2019-03-20T01:52:18.374Z,1026.36
2019-03-20T01:53:18.221Z,1026.35
2019-03-20T01:54:18.386Z,1026.35
2019-03-20T01:55:18.202Z,1026.36
2019-03-20T01:56:18.302Z,1026.35
2019-03-20T01:57:19.778Z,1026.39
2019-03-20T01:58:18.696Z,1026.35
2019-03-20T01:59:18.148Z,1026.39
2019-03-20T02:00:18.138Z,1026.42
2019-03-20T02:01:18.145Z,1026.41
2019-03-20T02:02:18.890Z,1026.37
2019-03-20T02:03:18.105Z,1026.40
2019-03-20T02:04:18.092Z,1026.40
2019-03-20T02:05:18.082Z,1026.42
2019-03-20T02:06:18.076Z,1026.41
2019-03-20T02:07:18.063Z,1026.43
2019-03-20T02:08:18.366Z,1026.45
2019-03-20T02:09:18.109Z,1026.41
2019-03-20T02:10:18.045Z,1026.39
2019-03-20T02:11:18.106Z,1026.39
2019-03-20T02:12:18.338Z,1026.36
2019-03-20T02:13:17.997Z,1026.39
2019-03-20T02:14:18.791Z,1026.43
2019-03-20T02:15:18.062Z,1026.49
2019-03-20T02:16:18.009Z,1026.49
2019-03-20T02:17:18.086Z,1026.49
2019-03-20T02:18:18.136Z,1026.50
2019-03-20T02:19:17.932Z,1026.47
2019-03-20T02:20:17.938Z,1026.47
2019-03-20T02:21:17.905Z,1026.49
2019-03-20T02:22:17.896Z,1026.56
2019-03-20T02:23:18.124Z,1026.52
2019-03-20T02:24:18.028Z,1026.54
2019-03-20T02:25:17.876Z,1026.58
2019-03-20T02:26:17.880Z,1026.60
2019-03-20T02:27:17.847Z,1026.58
2019-03-20T02:28:17.993Z,1026.54
2019-03-20T02:29:17.829Z,1026.53
2019-03-20T02:30:18.174Z,1026.53
2019-03-20T02:31:17.962Z,1026.53
2019-03-20T02:32:19.506Z,1026.62
2019-03-20T02:33:17.781Z,1026.59
2019-03-20T02:34:18.174Z,1026.54
2019-03-20T02:35:17.761Z,1026.59
2019-03-20T02:36:18.856Z,1026.56
2019-03-20T02:37:17.737Z,1026.55
2019-03-20T02:38:17.722Z,1026.59
2019-03-20T02:39:17.713Z,1026.57
2019-03-20T02:40:17.876Z,1026.60
2019-03-20T02:41:17.700Z,1026.58
2019-03-20T02:42:17.686Z,1026.56
2019-03-20T02:43:17.672Z,1026.51
2019-03-20T02:44:17.714Z,1026.54
2019-03-20T02:45:18.003Z,1026.54
2019-03-20T02:46:17.991Z,1026.52
2019-03-20T02:47:17.642Z,1026.53
2019-03-20T02:48:17.632Z,1026.53
2019-03-20T02:49:17.604Z,1026.49
2019-03-20T02:50:17.593Z,1026.52
2019-03-20T02:51:17.590Z,1026.50
2019-03-20T02:52:17.914Z,1026.52
2019-03-20T02:53:18.334Z,1026.50
2019-03-20T02:54:17.553Z,1026.50
2019-03-20T02:55:17.550Z,1026.50
2019-03-20T02:56:17.535Z,1026.52
2019-03-20T02:57:17.885Z,1026.55
2019-03-20T02:58:17.626Z,1026.58
2019-03-20T02:59:17.726Z,1026.54
2019-03-20T03:00:18.128Z,1026.60
2019-03-20T03:01:17.484Z,1026.59
2019-03-20T03:02:17.562Z,1026.61
2019-03-20T03:03:17.655Z,1026.61
2019-03-20T03:04:17.462Z,1026.62
2019-03-20T03:05:17.450Z,1026.59
2019-03-20T03:06:17.452Z,1026.64
2019-03-20T03:07:17.419Z,1026.58
2019-03-20T03:08:17.608Z,1026.67
2019-03-20T03:09:17.526Z,1026.66
2019-03-20T03:10:17.392Z,1026.71
2019-03-20T03:11:17.375Z,1026.70
2019-03-20T03:12:17.353Z,1026.68
2019-03-20T03:13:17.361Z,1026.67
2019-03-20T03:14:17.561Z,1026.74
2019-03-20T03:15:17.348Z,1026.75
2019-03-20T03:16:17.311Z,1026.74
2019-03-20T03:17:17.382Z,1026.72
2019-03-20T03:18:17.310Z,1026.74
2019-03-20T03:19:17.392Z,1026.69
2019-03-20T03:20:17.430Z,1026.67
2019-03-20T03:21:17.291Z,1026.68
2019-03-20T03:22:17.494Z,1026.72
2019-03-20T03:23:17.239Z,1026.72
2019-03-20T03:24:17.234Z,1026.75
2019-03-20T03:25:17.231Z,1026.75
2019-03-20T03:26:17.207Z,1026.72
2019-03-20T03:27:17.205Z,1026.75
2019-03-20T03:28:17.391Z,1026.73
2019-03-20T03:29:17.186Z,1026.74
2019-03-20T03:30:17.331Z,1026.73
2019-03-20T03:31:17.151Z,1026.72
2019-03-20T03:32:17.505Z,1026.73
2019-03-20T03:33:17.138Z,1026.76
2019-03-20T03:34:17.202Z,1026.74
2019-03-20T03:35:19.391Z,1026.76
2019-03-20T03:36:21.527Z,1026.71
2019-03-20T03:37:17.645Z,1026.74
2019-03-20T03:38:17.635Z,1026.70
2019-03-20T03:39:17.081Z,1026.69
2019-03-20T03:40:17.062Z,1026.72
2019-03-20T03:41:17.056Z,1026.70
2019-03-20T03:42:17.056Z,1026.71
2019-03-20T03:43:19.278Z,1026.70
2019-03-20T03:44:17.143Z,1026.71
2019-03-20T03:45:18.791Z,1026.72
2019-03-20T03:46:16.997Z,1026.79
2019-03-20T03:47:17.011Z,1026.77
2019-03-20T03:48:16.973Z,1026.80
2019-03-20T03:49:16.962Z,1026.75
2019-03-20T03:50:17.722Z,1026.78
2019-03-20T03:51:17.021Z,1026.81
2019-03-20T03:52:16.926Z,1026.80
2019-03-20T03:53:16.952Z,1026.85
2019-03-20T03:54:16.906Z,1026.88
2019-03-20T03:55:16.969Z,1026.86
2019-03-20T03:56:17.129Z,1026.84
2019-03-20T03:57:17.620Z,1026.87
2019-03-20T03:58:16.874Z,1026.89
2019-03-20T03:59:16.863Z,1026.87
2019-03-20T04:00:16.844Z,1026.90
2019-03-20T04:01:16.852Z,1026.93
2019-03-20T04:02:16.931Z,1026.86
2019-03-20T04:03:17.012Z,1026.90
2019-03-20T04:04:17.532Z,1026.88
2019-03-20T04:05:16.817Z,1026.82
2019-03-20T04:06:17.191Z,1026.81
2019-03-20T04:07:16.773Z,1026.86
2019-03-20T04:08:17.048Z,1026.86
2019-03-20T04:09:16.754Z,1026.85
2019-03-20T04:10:17.039Z,1026.87
2019-03-20T04:11:16.762Z,1026.90
2019-03-20T04:12:17.326Z,1026.88
2019-03-20T04:13:16.715Z,1026.88
2019-03-20T04:14:16.754Z,1026.88
2019-03-20T04:15:16.714Z,1026.94
2019-03-20T04:16:16.717Z,1026.96
2019-03-20T04:17:16.727Z,1026.96
2019-03-20T04:18:17.394Z,1027.01
2019-03-20T04:19:16.704Z,1027.04
2019-03-20T04:20:16.698Z,1027.01
2019-03-20T04:21:16.783Z,1027.07
2019-03-20T04:22:16.692Z,1027.06
2019-03-20T04:23:17.108Z,1027.09
2019-03-20T04:24:16.672Z,1027.07
2019-03-20T04:25:16.802Z,1027.11
2019-03-20T04:26:16.576Z,1027.13
2019-03-20T04:27:16.589Z,1027.12
2019-03-20T04:28:16.548Z,1027.11
2019-03-20T04:29:17.238Z,1027.15
2019-03-20T04:30:16.520Z,1027.14
2019-03-20T04:31:16.511Z,1027.15
2019-03-20T04:32:16.506Z,1027.13
2019-03-20T04:33:16.499Z,1027.11
2019-03-20T04:34:16.483Z,1027.15
2019-03-20T04:35:17.213Z,1027.15
2019-03-20T04:36:16.451Z,1027.18
2019-03-20T04:37:16.449Z,1027.17
2019-03-20T04:38:16.432Z,1027.13
2019-03-20T04:39:16.429Z,1027.09
2019-03-20T04:40:16.475Z,1027.14
2019-03-20T04:41:16.694Z,1027.12
2019-03-20T04:42:16.445Z,1027.08
2019-03-20T04:43:16.384Z,1027.11
2019-03-20T04:44:16.402Z,1027.14
2019-03-20T04:45:16.367Z,1027.11
2019-03-20T04:46:16.358Z,1027.15
2019-03-20T04:47:16.476Z,1027.13
2019-03-20T04:48:16.329Z,1027.18
2019-03-20T04:49:16.330Z,1027.10
2019-03-20T04:50:16.301Z,1027.13
2019-03-20T04:51:16.295Z,1027.11
2019-03-20T04:52:16.458Z,1027.16
2019-03-20T04:53:16.470Z,1027.17
2019-03-20T04:54:25.523Z,1027.14
2019-03-20T04:55:16.260Z,1027.15
2019-03-20T04:56:16.240Z,1027.12
2019-03-20T04:57:16.270Z,1027.12
2019-03-20T04:58:16.351Z,1027.08
2019-03-20T04:59:16.203Z,1027.12
2019-03-20T05:00:16.197Z,1027.11
2019-03-20T05:01:16.188Z,1027.12
2019-03-20T05:02:16.411Z,1027.16
2019-03-20T05:03:16.166Z,1027.19
2019-03-20T05:04:16.480Z,1027.24
2019-03-20T05:05:16.254Z,1027.24
2019-03-20T05:06:16.503Z,1027.20
2019-03-20T05:07:16.271Z,1027.23
2019-03-20T05:08:16.111Z,1027.22
2019-03-20T05:09:16.119Z,1027.26
2019-03-20T05:10:16.099Z,1027.20
2019-03-20T05:11:16.393Z,1027.21
2019-03-20T05:12:16.108Z,1027.21
2019-03-20T05:13:16.052Z,1027.21
2019-03-20T05:14:16.162Z,1027.23
2019-03-20T05:15:16.498Z,1027.23
2019-03-20T05:16:22.807Z,1027.26
2019-03-20T05:17:16.411Z,1027.27
2019-03-20T05:18:16.641Z,1027.26
2019-03-20T05:19:15.999Z,1027.30
2019-03-20T05:20:15.985Z,1027.26
2019-03-20T05:21:15.961Z,1027.25
2019-03-20T05:22:15.955Z,1027.23
2019-03-20T05:23:15.950Z,1027.22
2019-03-20T05:24:16.122Z,1027.28
2019-03-20T05:25:16.053Z,1027.25
2019-03-20T05:26:16.239Z,1027.30
2019-03-20T05:27:16.042Z,1027.35
2019-03-20T05:28:15.893Z,1027.33
2019-03-20T05:29:15.886Z,1027.34
2019-03-20T05:30:15.872Z,1027.37
2019-03-20T05:31:16.099Z,1027.38
2019-03-20T05:32:15.876Z,1027.41
2019-03-20T05:33:16.387Z,1027.44
2019-03-20T05:34:15.847Z,1027.42
2019-03-20T05:35:15.815Z,1027.38
2019-03-20T05:36:15.928Z,1027.43
2019-03-20T05:37:17.082Z,1027.41
2019-03-20T05:38:15.810Z,1027.37
2019-03-20T05:39:16.016Z,1027.41
2019-03-20T05:40:15.778Z,1027.44
2019-03-20T05:41:15.947Z,1027.41
2019-03-20T05:42:15.745Z,1027.43
2019-03-20T05:43:15.739Z,1027.44
2019-03-20T05:44:15.717Z,1027.45
2019-03-20T05:45:15.703Z,1027.52
2019-03-20T05:46:15.894Z,1027.53
2019-03-20T05:47:15.687Z,1027.54
2019-03-20T05:48:21.907Z,1027.57
2019-03-20T05:49:15.670Z,1027.56
2019-03-20T05:50:15.693Z,1027.54
2019-03-20T05:51:15.642Z,1027.57
2019-03-20T05:52:16.095Z,1027.60
2019-03-20T05:53:15.627Z,1027.63
2019-03-20T05:54:15.620Z,1027.61
2019-03-20T05:55:15.604Z,1027.63
2019-03-20T05:56:17.045Z,1027.62
2019-03-20T05:57:15.592Z,1027.58
2019-03-20T05:58:15.866Z,1027.62
2019-03-20T05:59:15.699Z,1027.59
2019-03-20T06:00:21.825Z,1027.59
2019-03-20T06:01:15.534Z,1027.63
2019-03-20T06:02:15.521Z,1027.63
2019-03-20T06:03:27.597Z,1027.65
2019-03-20T06:04:15.501Z,1027.64
2019-03-20T06:05:17.778Z,1027.60
2019-03-20T06:06:16.176Z,1027.59
2019-03-20T06:07:21.504Z,1027.62
2019-03-20T06:08:16.534Z,1027.62
2019-03-20T06:09:30.675Z,1027.59
2019-03-20T06:10:15.819Z,1027.60
2019-03-20T06:11:15.439Z,1027.60
2019-03-20T06:12:18.512Z,1027.59
2019-03-20T06:13:15.427Z,1027.55
2019-03-20T06:14:15.399Z,1027.63
2019-03-20T06:15:15.550Z,1027.63
2019-03-20T06:16:15.375Z,1027.64
2019-03-20T06:17:15.359Z,1027.63
2019-03-20T06:18:15.381Z,1027.63
2019-03-20T06:19:15.487Z,1027.62
2019-03-20T06:20:15.914Z,1027.62
2019-03-20T06:21:15.525Z,1027.67
2019-03-20T06:22:15.319Z,1027.61
2019-03-20T06:23:15.299Z,1027.59
2019-03-20T06:24:15.290Z,1027.62
2019-03-20T06:25:15.304Z,1027.65
2019-03-20T06:26:16.733Z,1027.63
2019-03-20T06:27:15.275Z,1027.61
2019-03-20T06:28:15.517Z,1027.60
2019-03-20T06:29:15.251Z,1027.56
2019-03-20T06:30:15.246Z,1027.58
2019-03-20T06:31:15.209Z,1027.64
2019-03-20T06:32:15.378Z,1027.62
2019-03-20T06:33:15.215Z,1027.67
2019-03-20T06:34:15.178Z,1027.68
2019-03-20T06:35:15.174Z,1027.74
2019-03-20T06:36:15.161Z,1027.74
2019-03-20T06:37:15.242Z,1027.72
2019-03-20T06:38:15.475Z,1027.78
2019-03-20T06:39:15.158Z,1027.71
2019-03-20T06:40:15.140Z,1027.76
2019-03-20T06:41:15.620Z,1027.77
2019-03-20T06:42:15.137Z,1027.77
2019-03-20T06:43:15.178Z,1027.81
2019-03-20T06:44:15.342Z,1027.82
2019-03-20T06:45:15.054Z,1027.82
2019-03-20T06:46:15.598Z,1027.79
2019-03-20T06:47:15.036Z,1027.81
2019-03-20T06:48:15.140Z,1027.86
2019-03-20T06:49:15.053Z,1027.80
2019-03-20T06:50:18.644Z,1027.78
2019-03-20T06:51:15.135Z,1027.78
2019-03-20T06:52:15.023Z,1027.77
2019-03-20T06:53:14.979Z,1027.77
2019-03-20T06:54:15.079Z,1027.80
2019-03-20T06:55:14.960Z,1027.82
2019-03-20T06:56:15.465Z,1027.86
2019-03-20T06:57:14.928Z,1027.81
2019-03-20T06:58:14.977Z,1027.84
2019-03-20T06:59:14.912Z,1027.83
2019-03-20T07:00:14.900Z,1027.88
2019-03-20T07:01:15.017Z,1027.93
2019-03-20T07:02:15.066Z,1027.88
2019-03-20T07:03:14.865Z,1027.92
2019-03-20T07:04:14.847Z,1027.86
2019-03-20T07:05:14.868Z,1027.91
2019-03-20T07:06:14.827Z,1027.88
2019-03-20T07:07:15.968Z,1027.94
2019-03-20T07:08:14.821Z,1027.97
2019-03-20T07:09:15.027Z,1027.94
2019-03-20T07:10:14.809Z,1027.95
2019-03-20T07:11:15.051Z,1028.01
2019-03-20T07:12:14.762Z,1028.01
2019-03-20T07:13:15.022Z,1027.96
2019-03-20T07:14:14.734Z,1027.99
2019-03-20T07:15:14.726Z,1027.98
2019-03-20T07:16:16.610Z,1028.00
2019-03-20T07:17:19.295Z,1028.01
2019-03-20T07:18:18.554Z,1027.96
2019-03-20T07:19:15.504Z,1027.97
2019-03-20T07:20:14.724Z,1027.91
2019-03-20T07:21:14.700Z,1027.99
2019-03-20T07:22:14.740Z,1027.98
2019-03-20T07:23:14.694Z,1027.99
2019-03-20T07:24:15.288Z,1027.95
2019-03-20T07:25:15.254Z,1027.99
2019-03-20T07:26:14.839Z,1028.03
2019-03-20T07:27:15.491Z,1028.03
2019-03-20T07:28:14.927Z,1027.98
2019-03-20T07:29:14.871Z,1028.00
2019-03-20T07:30:15.496Z,1028.02
2019-03-20T07:31:16.091Z,1028.04
2019-03-20T07:32:16.948Z,1028.03
2019-03-20T07:33:14.873Z,1028.07
2019-03-20T07:34:14.523Z,1028.06
2019-03-20T07:35:15.036Z,1028.13
2019-03-20T07:36:15.244Z,1028.09
2019-03-20T07:37:18.053Z,1028.10
2019-03-20T07:38:14.479Z,1028.05
2019-03-20T07:39:14.495Z,1028.06
2019-03-20T07:40:14.454Z,1028.05
2019-03-20T07:41:14.462Z,1028.07
2019-03-20T07:42:14.450Z,1028.06
2019-03-20T07:43:14.945Z,1028.09
2019-03-20T07:44:14.505Z,1028.09
2019-03-20T07:45:14.402Z,1028.06
2019-03-20T07:46:14.400Z,1028.01
2019-03-20T07:47:14.387Z,1028.00
2019-03-20T07:48:22.158Z,1028.06
2019-03-20T07:49:15.351Z,1028.01
2019-03-20T07:50:14.333Z,1028.04
2019-03-20T07:51:14.329Z,1027.98
2019-03-20T07:52:14.493Z,1028.03
2019-03-20T07:53:15.283Z,1028.07
2019-03-20T07:54:14.460Z,1028.04
2019-03-20T07:55:14.279Z,1028.03
2019-03-20T07:56:14.445Z,1028.07
2019-03-20T07:57:14.275Z,1028.10
2019-03-20T07:58:14.424Z,1028.15
2019-03-20T07:59:14.241Z,1028.10
2019-03-20T08:00:14.301Z,1028.09
2019-03-20T08:01:14.266Z,1028.15
2019-03-20T08:02:14.698Z,1028.14
2019-03-20T08:03:14.216Z,1028.16
2019-03-20T08:04:14.849Z,1028.19
2019-03-20T08:05:14.210Z,1028.21
2019-03-20T08:06:14.166Z,1028.23
2019-03-20T08:07:14.189Z,1028.21
2019-03-20T08:08:14.138Z,1028.22
2019-03-20T08:09:14.488Z,1028.21
2019-03-20T08:10:14.121Z,1028.29
2019-03-20T08:11:14.135Z,1028.24
2019-03-20T08:12:14.090Z,1028.28
2019-03-20T08:13:14.091Z,1028.29
2019-03-20T08:14:14.393Z,1028.34
2019-03-20T08:15:14.143Z,1028.20
2019-03-20T08:16:14.050Z,1028.24
2019-03-20T08:17:14.208Z,1028.23
2019-03-20T08:18:14.028Z,1028.19
2019-03-20T08:19:14.077Z,1028.23
2019-03-20T08:20:14.155Z,1028.25
2019-03-20T08:21:14.007Z,1028.27
2019-03-20T08:22:13.990Z,1028.23
2019-03-20T08:23:14.103Z,1028.21
2019-03-20T08:24:14.080Z,1028.25
2019-03-20T08:25:13.957Z,1028.22
2019-03-20T08:26:13.957Z,1028.21
2019-03-20T08:27:16.188Z,1028.28
2019-03-20T08:28:13.922Z,1028.25
2019-03-20T08:29:13.916Z,1028.27
2019-03-20T08:30:14.082Z,1028.33
2019-03-20T08:31:14.071Z,1028.34
2019-03-20T08:32:13.993Z,1028.35
2019-03-20T08:33:13.901Z,1028.32
2019-03-20T08:34:13.898Z,1028.35
2019-03-20T08:35:13.881Z,1028.34
2019-03-20T08:36:13.858Z,1028.37
2019-03-20T08:37:14.359Z,1028.37
2019-03-20T08:38:18.595Z,1028.37
2019-03-20T08:39:13.810Z,1028.40
2019-03-20T08:40:13.793Z,1028.38
2019-03-20T08:41:13.781Z,1028.42
2019-03-20T08:42:13.775Z,1028.41
2019-03-20T08:43:13.896Z,1028.39
2019-03-20T08:44:13.919Z,1028.36
2019-03-20T08:45:13.749Z,1028.38
2019-03-20T08:46:13.728Z,1028.43
2019-03-20T08:47:13.730Z,1028.33
2019-03-20T08:48:14.810Z,1028.39
2019-03-20T08:49:14.115Z,1028.38
2019-03-20T08:50:13.689Z,1028.39
2019-03-20T08:51:13.690Z,1028.36
2019-03-20T08:52:13.678Z,1028.29
2019-03-20T08:53:13.657Z,1028.42
2019-03-20T08:54:13.883Z,1028.41
2019-03-20T08:55:13.639Z,1028.26
2019-03-20T08:56:13.633Z,1028.38
2019-03-20T08:57:13.635Z,1028.43
2019-03-20T08:58:13.603Z,1028.37
2019-03-20T08:59:13.854Z,1028.39
2019-03-20T09:00:13.584Z,1028.38
2019-03-20T09:01:13.567Z,1028.40
2019-03-20T09:02:13.572Z,1028.26
2019-03-20T09:03:13.536Z,1028.32
2019-03-20T09:04:13.537Z,1028.40
2019-03-20T09:05:13.689Z,1028.41
2019-03-20T09:06:13.652Z,1028.46
2019-03-20T09:07:13.503Z,1028.41
2019-03-20T09:08:13.504Z,1028.47
2019-03-20T09:09:13.727Z,1028.53
2019-03-20T09:10:13.482Z,1028.53
2019-03-20T09:11:13.668Z,1028.52
2019-03-20T09:12:13.447Z,1028.52
2019-03-20T09:13:13.441Z,1028.61
2019-03-20T09:14:13.419Z,1028.59
2019-03-20T09:15:13.421Z,1028.65
2019-03-20T09:16:13.414Z,1028.62
2019-03-20T09:17:19.007Z,1028.65
2019-03-20T09:18:13.388Z,1028.66
2019-03-20T09:19:13.379Z,1028.62
2019-03-20T09:20:13.362Z,1028.68
2019-03-20T09:21:13.410Z,1028.68
2019-03-20T09:22:13.337Z,1028.67
2019-03-20T09:23:13.624Z,1028.67
2019-03-20T09:24:13.325Z,1028.69
2019-03-20T09:25:13.323Z,1028.63
2019-03-20T09:26:13.296Z,1028.67
2019-03-20T09:27:13.718Z,1028.67
2019-03-20T09:28:13.463Z,1028.69
2019-03-20T09:29:18.651Z,1028.74
2019-03-20T09:30:14.251Z,1028.68
2019-03-20T09:31:13.243Z,1028.73
2019-03-20T09:32:13.554Z,1028.74
2019-03-20T09:33:13.221Z,1028.68
2019-03-20T09:34:13.209Z,1028.76
2019-03-20T09:35:13.198Z,1028.77
2019-03-20T09:36:13.185Z,1028.76
2019-03-20T09:37:13.173Z,1028.75
2019-03-20T09:38:17.132Z,1028.80
2019-03-20T09:39:13.158Z,1028.72
2019-03-20T09:40:13.284Z,1028.72
2019-03-20T09:41:13.135Z,1028.71
2019-03-20T09:42:13.830Z,1028.76
2019-03-20T09:43:13.110Z,1028.77
2019-03-20T09:44:13.567Z,1028.78
2019-03-20T09:45:13.088Z,1028.74
2019-03-20T09:46:13.106Z,1028.70
2019-03-20T09:47:13.073Z,1028.70
2019-03-20T09:48:13.068Z,1028.65
2019-03-20T09:49:13.240Z,1028.66
2019-03-20T09:50:13.035Z,1028.67
2019-03-20T09:51:13.018Z,1028.68
2019-03-20T09:52:13.013Z,1028.71
2019-03-20T09:53:13.021Z,1028.70
2019-03-20T09:54:13.169Z,1028.70
2019-03-20T09:55:13.137Z,1028.71
2019-03-20T09:56:13.930Z,1028.69
2019-03-20T09:57:12.959Z,1028.76
2019-03-20T09:58:12.954Z,1028.72
2019-03-20T09:59:14.644Z,1028.73
2019-03-20T10:00:12.939Z,1028.73
2019-03-20T10:01:13.311Z,1028.63
2019-03-20T10:02:12.907Z,1028.72
2019-03-20T10:03:12.923Z,1028.69
2019-03-20T10:04:12.881Z,1028.65
2019-03-20T10:05:13.084Z,1028.65
2019-03-20T10:06:12.868Z,1028.70
2019-03-20T10:07:12.857Z,1028.75
2019-03-20T10:08:13.005Z,1028.73
2019-03-20T10:09:12.844Z,1028.66
2019-03-20T10:10:13.029Z,1028.67
2019-03-20T10:11:12.971Z,1028.58
2019-03-20T10:12:13.040Z,1028.65
2019-03-20T10:13:12.792Z,1028.57
2019-03-20T10:14:12.787Z,1028.61
2019-03-20T10:15:12.777Z,1028.55
2019-03-20T10:16:13.456Z,1028.55
2019-03-20T10:17:12.748Z,1028.59
2019-03-20T10:18:12.738Z,1028.53
2019-03-20T10:19:13.081Z,1028.48
2019-03-20T10:20:14.000Z,1028.48
2019-03-20T10:21:12.702Z,1028.41
2019-03-20T10:22:13.252Z,1028.37
2019-03-20T10:23:13.010Z,1028.59
2019-03-20T10:24:13.106Z,1028.46
2019-03-20T10:25:12.710Z,1028.55
2019-03-20T10:26:12.673Z,1028.56
2019-03-20T10:27:13.067Z,1028.59
2019-03-20T10:28:12.679Z,1028.56
2019-03-20T10:29:12.863Z,1028.60
2019-03-20T10:30:12.688Z,1028.51
2019-03-20T10:31:12.960Z,1028.52
2019-03-20T10:32:12.678Z,1028.48
2019-03-20T10:33:13.323Z,1028.54
2019-03-20T10:34:12.656Z,1028.48
2019-03-20T10:35:13.329Z,1028.50
2019-03-20T10:36:12.539Z,1028.43
2019-03-20T10:37:12.547Z,1028.45
2019-03-20T10:38:12.528Z,1028.44
2019-03-20T10:39:13.247Z,1028.46
2019-03-20T10:40:12.509Z,1028.47
2019-03-20T10:41:12.492Z,1028.47
2019-03-20T10:42:12.487Z,1028.53
2019-03-20T10:43:12.526Z,1028.63
2019-03-20T10:44:12.489Z,1028.58
2019-03-20T10:45:13.159Z,1028.56
2019-03-20T10:46:14.301Z,1028.60
2019-03-20T10:47:12.445Z,1028.54
2019-03-20T10:48:12.449Z,1028.55
2019-03-20T10:49:14.567Z,1028.54
2019-03-20T10:50:12.413Z,1028.54
2019-03-20T10:51:12.535Z,1028.58
2019-03-20T10:52:12.388Z,1028.61
2019-03-20T10:53:12.503Z,1028.57
2019-03-20T10:54:12.348Z,1028.57
2019-03-20T10:55:12.367Z,1028.65
2019-03-20T10:56:12.339Z,1028.60
2019-03-20T10:57:12.318Z,1028.64
2019-03-20T10:58:12.353Z,1028.67
2019-03-20T10:59:12.483Z,1028.65
2019-03-20T11:00:12.299Z,1028.64
2019-03-20T11:01:12.293Z,1028.67
2019-03-20T11:02:12.275Z,1028.59
2019-03-20T11:03:12.327Z,1028.62
2019-03-20T11:04:12.548Z,1028.56
2019-03-20T11:05:12.286Z,1028.54
2019-03-20T11:06:12.223Z,1028.56
2019-03-20T11:07:12.216Z,1028.57
2019-03-20T11:08:13.133Z,1028.63
2019-03-20T11:09:18.183Z,1028.52
2019-03-20T11:10:14.106Z,1028.57
2019-03-20T11:11:12.188Z,1028.53
2019-03-20T11:12:12.164Z,1028.50
2019-03-20T11:13:12.161Z,1028.54
2019-03-20T11:14:12.147Z,1028.49
2019-03-20T11:15:12.425Z,1028.49
2019-03-20T11:16:12.205Z,1028.45
2019-03-20T11:17:12.114Z,1028.56
2019-03-20T11:18:12.153Z,1028.56
2019-03-20T11:19:12.088Z,1028.54
2019-03-20T11:20:12.211Z,1028.51
2019-03-20T11:21:12.240Z,1028.55
2019-03-20T11:22:18.540Z,1028.62
2019-03-20T11:23:15.452Z,1028.60
2019-03-20T11:24:12.043Z,1028.56
2019-03-20T11:25:12.034Z,1028.58
2019-03-20T11:26:12.150Z,1028.49
2019-03-20T11:27:12.018Z,1028.45
2019-03-20T11:28:11.999Z,1028.43
2019-03-20T11:29:11.988Z,1028.35
2019-03-20T11:30:11.974Z,1028.40
2019-03-20T11:31:12.448Z,1028.39
2019-03-20T11:32:14.273Z,1028.38
2019-03-20T11:33:11.945Z,1028.31
2019-03-20T11:34:11.943Z,1028.38
2019-03-20T11:35:11.998Z,1028.17
2019-03-20T11:36:11.903Z,1028.37
2019-03-20T11:37:12.092Z,1028.38
2019-03-20T11:38:11.891Z,1028.34
2019-03-20T11:39:11.911Z,1028.23
2019-03-20T11:40:11.867Z,1028.18
2019-03-20T11:41:11.926Z,1028.23
2019-03-20T11:42:11.856Z,1027.91
2019-03-20T11:43:12.028Z,1028.08
2019-03-20T11:44:11.834Z,1028.02
2019-03-20T11:45:11.810Z,1027.93
2019-03-20T11:46:11.808Z,1028.10
2019-03-20T11:47:11.800Z,1028.04
2019-03-20T11:48:13.546Z,1028.08
2019-03-20T11:49:11.774Z,1028.07
2019-03-20T11:50:11.778Z,1027.99
2019-03-20T11:51:11.767Z,1027.91
2019-03-20T11:52:11.850Z,1027.98
2019-03-20T11:53:11.735Z,1028.11
2019-03-20T11:54:12.865Z,1028.19
2019-03-20T11:55:11.714Z,1027.99
2019-03-20T11:56:11.709Z,1028.09
2019-03-20T11:57:11.684Z,1028.11
2019-03-20T11:58:11.687Z,1028.14
2019-03-20T11:59:11.679Z,1028.24
2019-03-20T12:00:15.431Z,1028.18
2019-03-20T12:01:11.650Z,1028.06
2019-03-20T12:02:11.631Z,1028.03
2019-03-20T12:03:11.623Z,1028.02
2019-03-20T12:04:11.652Z,1027.96
2019-03-20T12:05:11.648Z,1027.97